sensor_id;sensor_type;location;lat;lon;timestamp;temperature;humidity
13616;DHT22;6879;51.368;6.782;2022-07-12T00:00:16;13.80;99.90
13616;DHT22;6879;51.368;6.782;2022-07-12T00:02:44;13.70;99.90
13616;DHT22;6879;51.368;6.782;2022-07-12T00:05:13;13.70;99.90
13616;DHT22;6879;51.368;6.782;2022-07-12T00:07:42;13.70;99.90
13616;DHT22;6879;51.368;6.782;2022-07-12T00:10:12;13.60;99.90
13616;DHT22;6879;51.368;6.782;2022-07-12T00:12:41;13.40;99.90
13616;DHT22;6879;51.368;6.782;2022-07-12T00:15:10;13.40;99.90
13616;DHT22;6879;51.368;6.782;2022-07-12T00:17:39;13.30;99.90
13616;DHT22;6879;51.368;6.782;2022-07-12T00:20:08;13.30;99.90
13616;DHT22;6879;51.368;6.782;2022-07-12T00:22:37;13.20;99.90
13616;DHT22;6879;51.368;6.782;2022-07-12T00:25:07;13.20;99.90
13616;DHT22;6879;51.368;6.782;2022-07-12T00:27:37;13.20;99.90
13616;DHT22;6879;51.368;6.782;2022-07-12T00:30:07;13.20;99.90
13616;DHT22;6879;51.368;6.782;2022-07-12T00:32:36;13.10;99.90
13616;DHT22;6879;51.368;6.782;2022-07-12T00:35:06;13.00;99.90
13616;DHT22;6879;51.368;6.782;2022-07-12T00:37:35;12.90;99.90
13616;DHT22;6879;51.368;6.782;2022-07-12T00:40:04;12.90;99.90
13616;DHT22;6879;51.368;6.782;2022-07-12T00:42:34;12.80;99.90
13616;DHT22;6879;51.368;6.782;2022-07-12T00:45:05;12.80;99.90
13616;DHT22;6879;51.368;6.782;2022-07-12T00:47:37;12.80;99.90
13616;DHT22;6879;51.368;6.782;2022-07-12T00:50:09;12.90;99.90
13616;DHT22;6879;51.368;6.782;2022-07-12T00:52:38;12.90;99.90
13616;DHT22;6879;51.368;6.782;2022-07-12T00:55:09;12.80;99.90
13616;DHT22;6879;51.368;6.782;2022-07-12T00:57:39;12.60;99.90
13616;DHT22;6879;51.368;6.782;2022-07-12T01:00:17;12.60;99.90
13616;DHT22;6879;51.368;6.782;2022-07-12T01:02:46;12.50;99.90
13616;DHT22;6879;51.368;6.782;2022-07-12T01:05:16;12.50;99.90
13616;DHT22;6879;51.368;6.782;2022-07-12T01:07:45;12.50;99.90
13616;DHT22;6879;51.368;6.782;2022-07-12T01:10:14;12.50;99.90
13616;DHT22;6879;51.368;6.782;2022-07-12T01:12:43;12.50;99.90
13616;DHT22;6879;51.368;6.782;2022-07-12T01:15:14;12.50;99.90
13616;DHT22;6879;51.368;6.782;2022-07-12T01:17:44;12.40;99.90
13616;DHT22;6879;51.368;6.782;2022-07-12T01:20:19;12.40;99.90
13616;DHT22;6879;51.368;6.782;2022-07-12T01:22:53;12.40;99.90
13616;DHT22;6879;51.368;6.782;2022-07-12T01:25:25;12.30;99.90
13616;DHT22;6879;51.368;6.782;2022-07-12T01:27:54;12.30;99.90
13616;DHT22;6879;51.368;6.782;2022-07-12T01:30:23;12.40;99.90
13616;DHT22;6879;51.368;6.782;2022-07-12T01:32:52;12.30;99.90
13616;DHT22;6879;51.368;6.782;2022-07-12T01:35:23;12.30;99.90
13616;DHT22;6879;51.368;6.782;2022-07-12T01:37:54;12.20;99.90
13616;DHT22;6879;51.368;6.782;2022-07-12T01:40:23;12.20;99.90
13616;DHT22;6879;51.368;6.782;2022-07-12T01:42:52;12.20;99.90
13616;DHT22;6879;51.368;6.782;2022-07-12T01:45:25;12.20;99.90
13616;DHT22;6879;51.368;6.782;2022-07-12T01:47:54;12.20;99.90
13616;DHT22;6879;51.368;6.782;2022-07-12T01:50:25;12.10;99.90
13616;DHT22;6879;51.368;6.782;2022-07-12T01:52:55;12.10;99.90
13616;DHT22;6879;51.368;6.782;2022-07-12T01:55:24;12.10;99.90
13616;DHT22;6879;51.368;6.782;2022-07-12T01:57:53;12.10;99.90
13616;DHT22;6879;51.368;6.782;2022-07-12T02:00:22;12.10;99.90
13616;DHT22;6879;51.368;6.782;2022-07-12T02:02:50;12.20;99.90
13616;DHT22;6879;51.368;6.782;2022-07-12T02:05:19;12.20;99.90
13616;DHT22;6879;51.368;6.782;2022-07-12T02:07:49;12.20;99.90
13616;DHT22;6879;51.368;6.782;2022-07-12T02:10:19;12.20;99.90
13616;DHT22;6879;51.368;6.782;2022-07-12T02:12:48;12.20;99.90
13616;DHT22;6879;51.368;6.782;2022-07-12T02:15:17;12.20;99.90
13616;DHT22;6879;51.368;6.782;2022-07-12T02:17:45;12.20;99.90
13616;DHT22;6879;51.368;6.782;2022-07-12T02:20:14;12.20;99.90
13616;DHT22;6879;51.368;6.782;2022-07-12T02:22:43;12.10;99.90
13616;DHT22;6879;51.368;6.782;2022-07-12T02:25:11;12.10;99.90
13616;DHT22;6879;51.368;6.782;2022-07-12T02:27:42;12.10;99.90
13616;DHT22;6879;51.368;6.782;2022-07-12T02:30:11;12.00;99.90
13616;DHT22;6879;51.368;6.782;2022-07-12T02:32:40;11.90;99.90
13616;DHT22;6879;51.368;6.782;2022-07-12T02:35:09;11.80;99.90
13616;DHT22;6879;51.368;6.782;2022-07-12T02:37:37;11.70;99.90
13616;DHT22;6879;51.368;6.782;2022-07-12T02:40:07;11.70;99.90
13616;DHT22;6879;51.368;6.782;2022-07-12T02:42:54;11.70;99.90
13616;DHT22;6879;51.368;6.782;2022-07-12T02:45:23;11.60;99.90
13616;DHT22;6879;51.368;6.782;2022-07-12T02:47:51;11.60;99.90
13616;DHT22;6879;51.368;6.782;2022-07-12T02:50:20;11.50;99.90
13616;DHT22;6879;51.368;6.782;2022-07-12T02:52:48;11.50;99.90
13616;DHT22;6879;51.368;6.782;2022-07-12T02:55:17;11.50;99.90
13616;DHT22;6879;51.368;6.782;2022-07-12T02:57:46;11.50;99.90
13616;DHT22;6879;51.368;6.782;2022-07-12T03:00:17;11.40;99.90
13616;DHT22;6879;51.368;6.782;2022-07-12T03:02:45;11.40;99.90
13616;DHT22;6879;51.368;6.782;2022-07-12T03:05:15;11.30;99.90
13616;DHT22;6879;51.368;6.782;2022-07-12T03:07:44;11.30;99.90
13616;DHT22;6879;51.368;6.782;2022-07-12T03:10:13;11.40;99.90
13616;DHT22;6879;51.368;6.782;2022-07-12T03:12:41;11.30;99.90
13616;DHT22;6879;51.368;6.782;2022-07-12T03:15:10;11.30;99.90
13616;DHT22;6879;51.368;6.782;2022-07-12T03:17:40;11.30;99.90
13616;DHT22;6879;51.368;6.782;2022-07-12T03:20:10;11.20;99.90
13616;DHT22;6879;51.368;6.782;2022-07-12T03:22:41;11.20;99.90
13616;DHT22;6879;51.368;6.782;2022-07-12T03:25:10;11.20;99.90
13616;DHT22;6879;51.368;6.782;2022-07-12T03:27:39;11.20;99.90
13616;DHT22;6879;51.368;6.782;2022-07-12T03:30:10;11.20;99.90
13616;DHT22;6879;51.368;6.782;2022-07-12T03:32:47;11.20;99.90
13616;DHT22;6879;51.368;6.782;2022-07-12T03:35:17;11.10;99.90
13616;DHT22;6879;51.368;6.782;2022-07-12T03:37:47;11.10;99.90
13616;DHT22;6879;51.368;6.782;2022-07-12T03:40:17;11.20;99.90
13616;DHT22;6879;51.368;6.782;2022-07-12T03:42:46;11.20;99.90
13616;DHT22;6879;51.368;6.782;2022-07-12T03:45:16;11.30;99.90
13616;DHT22;6879;51.368;6.782;2022-07-12T03:47:46;11.40;99.90
13616;DHT22;6879;51.368;6.782;2022-07-12T03:50:16;11.30;99.90
13616;DHT22;6879;51.368;6.782;2022-07-12T03:52:44;11.30;99.90
13616;DHT22;6879;51.368;6.782;2022-07-12T03:55:13;11.20;99.90
13616;DHT22;6879;51.368;6.782;2022-07-12T03:57:41;11.20;99.90
13616;DHT22;6879;51.368;6.782;2022-07-12T04:00:13;11.20;99.90
13616;DHT22;6879;51.368;6.782;2022-07-12T04:02:49;11.30;99.90
13616;DHT22;6879;51.368;6.782;2022-07-12T04:05:20;11.30;99.90
13616;DHT22;6879;51.368;6.782;2022-07-12T04:07:52;11.30;99.90
13616;DHT22;6879;51.368;6.782;2022-07-12T04:10:21;11.40;99.90
13616;DHT22;6879;51.368;6.782;2022-07-12T04:12:50;11.40;99.90
13616;DHT22;6879;51.368;6.782;2022-07-12T04:15:19;11.40;99.90
13616;DHT22;6879;51.368;6.782;2022-07-12T04:17:49;11.50;99.90
13616;DHT22;6879;51.368;6.782;2022-07-12T04:20:18;11.40;99.90
13616;DHT22;6879;51.368;6.782;2022-07-12T04:22:46;11.40;99.90
13616;DHT22;6879;51.368;6.782;2022-07-12T04:25:18;11.50;99.90
13616;DHT22;6879;51.368;6.782;2022-07-12T04:27:46;11.50;99.90
13616;DHT22;6879;51.368;6.782;2022-07-12T04:30:15;11.60;99.90
13616;DHT22;6879;51.368;6.782;2022-07-12T04:32:46;11.70;99.90
13616;DHT22;6879;51.368;6.782;2022-07-12T04:35:23;11.70;99.90
13616;DHT22;6879;51.368;6.782;2022-07-12T04:37:52;11.80;99.90
13616;DHT22;6879;51.368;6.782;2022-07-12T04:40:20;11.90;99.90
13616;DHT22;6879;51.368;6.782;2022-07-12T04:42:48;12.00;99.90
13616;DHT22;6879;51.368;6.782;2022-07-12T04:45:18;12.10;99.90
13616;DHT22;6879;51.368;6.782;2022-07-12T04:47:46;12.20;99.90
13616;DHT22;6879;51.368;6.782;2022-07-12T04:50:14;12.30;99.90
13616;DHT22;6879;51.368;6.782;2022-07-12T04:52:44;12.50;99.90
13616;DHT22;6879;51.368;6.782;2022-07-12T04:55:12;12.60;99.90
13616;DHT22;6879;51.368;6.782;2022-07-12T04:57:41;12.70;99.90
13616;DHT22;6879;51.368;6.782;2022-07-12T05:00:10;12.80;99.90
13616;DHT22;6879;51.368;6.782;2022-07-12T05:02:39;12.80;99.90
13616;DHT22;6879;51.368;6.782;2022-07-12T05:05:07;12.90;99.90
13616;DHT22;6879;51.368;6.782;2022-07-12T05:07:36;13.00;99.90
13616;DHT22;6879;51.368;6.782;2022-07-12T05:10:13;13.20;99.90
13616;DHT22;6879;51.368;6.782;2022-07-12T05:12:42;13.40;99.90
13616;DHT22;6879;51.368;6.782;2022-07-12T05:15:10;13.50;99.90
13616;DHT22;6879;51.368;6.782;2022-07-12T05:17:39;13.70;99.90
13616;DHT22;6879;51.368;6.782;2022-07-12T05:20:08;13.80;99.90
13616;DHT22;6879;51.368;6.782;2022-07-12T05:22:37;13.90;99.90
13616;DHT22;6879;51.368;6.782;2022-07-12T05:25:08;14.00;99.90
13616;DHT22;6879;51.368;6.782;2022-07-12T05:27:38;14.20;99.90
13616;DHT22;6879;51.368;6.782;2022-07-12T05:30:07;14.30;99.90
13616;DHT22;6879;51.368;6.782;2022-07-12T05:32:36;14.40;99.90
13616;DHT22;6879;51.368;6.782;2022-07-12T05:35:05;14.60;99.90
13616;DHT22;6879;51.368;6.782;2022-07-12T05:37:34;14.80;99.90
13616;DHT22;6879;51.368;6.782;2022-07-12T05:40:03;14.90;99.90
13616;DHT22;6879;51.368;6.782;2022-07-12T05:42:32;15.10;99.90
13616;DHT22;6879;51.368;6.782;2022-07-12T05:45:03;15.20;99.90
13616;DHT22;6879;51.368;6.782;2022-07-12T05:47:31;15.40;99.90
13616;DHT22;6879;51.368;6.782;2022-07-12T05:50:03;15.50;99.90
13616;DHT22;6879;51.368;6.782;2022-07-12T05:52:32;15.70;99.90
13616;DHT22;6879;51.368;6.782;2022-07-12T05:55:18;15.90;99.90
13616;DHT22;6879;51.368;6.782;2022-07-12T05:57:47;16.10;99.90
13616;DHT22;6879;51.368;6.782;2022-07-12T06:00:17;16.30;99.90
13616;DHT22;6879;51.368;6.782;2022-07-12T06:02:46;16.50;99.90
13616;DHT22;6879;51.368;6.782;2022-07-12T06:05:15;16.80;99.90
13616;DHT22;6879;51.368;6.782;2022-07-12T06:07:44;17.00;99.90
13616;DHT22;6879;51.368;6.782;2022-07-12T06:10:12;17.30;99.90
13616;DHT22;6879;51.368;6.782;2022-07-12T06:12:41;17.40;99.90
13616;DHT22;6879;51.368;6.782;2022-07-12T06:15:18;17.60;99.90
13616;DHT22;6879;51.368;6.782;2022-07-12T06:17:46;17.70;99.90
13616;DHT22;6879;51.368;6.782;2022-07-12T06:20:16;17.90;99.90
13616;DHT22;6879;51.368;6.782;2022-07-12T06:22:44;18.10;99.90
13616;DHT22;6879;51.368;6.782;2022-07-12T06:25:13;18.30;99.90
13616;DHT22;6879;51.368;6.782;2022-07-12T06:28:01;18.40;99.90
13616;DHT22;6879;51.368;6.782;2022-07-12T06:30:33;18.50;99.90
13616;DHT22;6879;51.368;6.782;2022-07-12T06:33:02;18.60;99.90
13616;DHT22;6879;51.368;6.782;2022-07-12T06:35:30;18.80;99.90
13616;DHT22;6879;51.368;6.782;2022-07-12T06:38:01;18.90;99.90
13616;DHT22;6879;51.368;6.782;2022-07-12T06:40:29;19.10;99.90
13616;DHT22;6879;51.368;6.782;2022-07-12T06:42:58;19.20;99.90
13616;DHT22;6879;51.368;6.782;2022-07-12T06:45:27;19.30;99.90
13616;DHT22;6879;51.368;6.782;2022-07-12T06:47:57;19.50;99.90
13616;DHT22;6879;51.368;6.782;2022-07-12T06:50:25;19.70;99.90
13616;DHT22;6879;51.368;6.782;2022-07-12T06:52:53;19.70;99.90
13616;DHT22;6879;51.368;6.782;2022-07-12T06:55:24;19.90;99.30
13616;DHT22;6879;51.368;6.782;2022-07-12T06:57:53;20.00;99.40
13616;DHT22;6879;51.368;6.782;2022-07-12T07:00:21;20.20;98.70
13616;DHT22;6879;51.368;6.782;2022-07-12T07:02:50;20.30;98.00
13616;DHT22;6879;51.368;6.782;2022-07-12T07:05:20;20.40;97.40
13616;DHT22;6879;51.368;6.782;2022-07-12T07:07:49;20.50;97.50
13616;DHT22;6879;51.368;6.782;2022-07-12T07:10:17;20.70;96.80
13616;DHT22;6879;51.368;6.782;2022-07-12T07:12:46;20.80;96.50
13616;DHT22;6879;51.368;6.782;2022-07-12T07:15:15;20.90;96.10
13616;DHT22;6879;51.368;6.782;2022-07-12T07:17:46;21.10;96.00
13616;DHT22;6879;51.368;6.782;2022-07-12T07:20:14;21.20;95.80
13616;DHT22;6879;51.368;6.782;2022-07-12T07:22:44;21.20;95.90
13616;DHT22;6879;51.368;6.782;2022-07-12T07:25:15;21.30;95.50
13616;DHT22;6879;51.368;6.782;2022-07-12T07:27:44;21.50;95.00
13616;DHT22;6879;51.368;6.782;2022-07-12T07:30:13;21.60;94.00
13616;DHT22;6879;51.368;6.782;2022-07-12T07:32:59;21.60;93.80
13616;DHT22;6879;51.368;6.782;2022-07-12T07:35:28;21.70;93.50
13616;DHT22;6879;51.368;6.782;2022-07-12T07:37:58;21.90;93.40
13616;DHT22;6879;51.368;6.782;2022-07-12T07:40:27;22.00;92.60
13616;DHT22;6879;51.368;6.782;2022-07-12T07:42:55;22.00;92.60
13616;DHT22;6879;51.368;6.782;2022-07-12T07:45:27;22.10;92.70
13616;DHT22;6879;51.368;6.782;2022-07-12T07:47:55;22.10;92.70
13616;DHT22;6879;51.368;6.782;2022-07-12T07:50:44;22.10;92.90
13616;DHT22;6879;51.368;6.782;2022-07-12T07:53:14;22.10;92.30
13616;DHT22;6879;51.368;6.782;2022-07-12T07:55:43;22.20;92.10
13616;DHT22;6879;51.368;6.782;2022-07-12T07:58:14;22.10;92.10
13616;DHT22;6879;51.368;6.782;2022-07-12T08:00:43;22.20;92.00
13616;DHT22;6879;51.368;6.782;2022-07-12T08:03:11;22.30;92.00
13616;DHT22;6879;51.368;6.782;2022-07-12T08:05:40;22.30;91.50
13616;DHT22;6879;51.368;6.782;2022-07-12T08:08:08;22.40;90.90
13616;DHT22;6879;51.368;6.782;2022-07-12T08:10:39;22.50;90.50
13616;DHT22;6879;51.368;6.782;2022-07-12T08:13:07;22.50;90.20
13616;DHT22;6879;51.368;6.782;2022-07-12T08:15:36;22.50;89.80
13616;DHT22;6879;51.368;6.782;2022-07-12T08:18:04;22.70;89.50
13616;DHT22;6879;51.368;6.782;2022-07-12T08:20:33;22.80;89.40
13616;DHT22;6879;51.368;6.782;2022-07-12T08:23:17;22.90;88.60
13616;DHT22;6879;51.368;6.782;2022-07-12T08:25:47;22.90;88.30
13616;DHT22;6879;51.368;6.782;2022-07-12T08:28:15;22.90;88.70
13616;DHT22;6879;51.368;6.782;2022-07-12T08:30:44;23.00;88.00
13616;DHT22;6879;51.368;6.782;2022-07-12T08:33:14;23.10;87.80
13616;DHT22;6879;51.368;6.782;2022-07-12T08:35:43;23.20;87.10
13616;DHT22;6879;51.368;6.782;2022-07-12T08:38:11;23.10;87.10
13616;DHT22;6879;51.368;6.782;2022-07-12T08:40:47;23.20;87.10
13616;DHT22;6879;51.368;6.782;2022-07-12T08:43:15;23.30;86.70
13616;DHT22;6879;51.368;6.782;2022-07-12T08:45:44;23.50;86.50
13616;DHT22;6879;51.368;6.782;2022-07-12T08:48:12;23.80;85.90
13616;DHT22;6879;51.368;6.782;2022-07-12T08:50:41;23.90;86.00
13616;DHT22;6879;51.368;6.782;2022-07-12T08:53:12;23.90;86.20
13616;DHT22;6879;51.368;6.782;2022-07-12T08:55:42;24.10;85.70
13616;DHT22;6879;51.368;6.782;2022-07-12T08:58:18;24.30;85.30
13616;DHT22;6879;51.368;6.782;2022-07-12T09:00:47;24.60;84.50
13616;DHT22;6879;51.368;6.782;2022-07-12T09:03:17;24.70;84.10
13616;DHT22;6879;51.368;6.782;2022-07-12T09:05:49;24.70;84.00
13616;DHT22;6879;51.368;6.782;2022-07-12T09:08:24;24.80;83.90
13616;DHT22;6879;51.368;6.782;2022-07-12T09:10:56;24.70;83.80
13616;DHT22;6879;51.368;6.782;2022-07-12T09:13:49;24.80;84.00
13616;DHT22;6879;51.368;6.782;2022-07-12T09:16:23;25.10;83.00
13616;DHT22;6879;51.368;6.782;2022-07-12T09:19:18;25.10;82.60
13616;DHT22;6879;51.368;6.782;2022-07-12T09:21:49;25.30;82.10
13616;DHT22;6879;51.368;6.782;2022-07-12T09:24:18;25.60;81.50
13616;DHT22;6879;51.368;6.782;2022-07-12T09:26:47;26.10;80.50
13616;DHT22;6879;51.368;6.782;2022-07-12T09:29:18;26.80;78.70
13616;DHT22;6879;51.368;6.782;2022-07-12T09:31:48;27.60;76.60
13616;DHT22;6879;51.368;6.782;2022-07-12T09:34:34;28.40;75.20
13616;DHT22;6879;51.368;6.782;2022-07-12T09:37:21;28.80;73.70
13616;DHT22;6879;51.368;6.782;2022-07-12T09:39:51;29.00;73.50
13616;DHT22;6879;51.368;6.782;2022-07-12T09:42:20;29.30;71.50
13616;DHT22;6879;51.368;6.782;2022-07-12T09:44:56;29.30;71.50
13616;DHT22;6879;51.368;6.782;2022-07-12T09:47:25;29.50;71.30
13616;DHT22;6879;51.368;6.782;2022-07-12T09:49:54;29.80;70.90
13616;DHT22;6879;51.368;6.782;2022-07-12T09:52:25;30.30;69.80
13616;DHT22;6879;51.368;6.782;2022-07-12T09:54:55;30.60;68.40
13616;DHT22;6879;51.368;6.782;2022-07-12T09:57:27;30.80;67.40
13616;DHT22;6879;51.368;6.782;2022-07-12T09:59:58;30.90;66.70
13616;DHT22;6879;51.368;6.782;2022-07-12T10:02:37;31.00;65.60
13616;DHT22;6879;51.368;6.782;2022-07-12T10:05:08;30.40;66.60
13616;DHT22;6879;51.368;6.782;2022-07-12T10:07:37;30.00;67.50
13616;DHT22;6879;51.368;6.782;2022-07-12T10:10:08;29.50;68.50
13616;DHT22;6879;51.368;6.782;2022-07-12T10:12:37;29.50;68.30
13616;DHT22;6879;51.368;6.782;2022-07-12T10:15:14;29.60;68.60
13616;DHT22;6879;51.368;6.782;2022-07-12T10:17:51;29.20;67.70
13616;DHT22;6879;51.368;6.782;2022-07-12T10:20:24;29.30;68.70
13616;DHT22;6879;51.368;6.782;2022-07-12T10:23:30;29.50;68.30
13616;DHT22;6879;51.368;6.782;2022-07-12T10:28:55;30.60;65.50
13616;DHT22;6879;51.368;6.782;2022-07-12T10:31:28;30.90;64.60
13616;DHT22;6879;51.368;6.782;2022-07-12T10:34:12;31.00;65.20
13616;DHT22;6879;51.368;6.782;2022-07-12T10:40:12;31.70;64.30
13616;DHT22;6879;51.368;6.782;2022-07-12T10:42:41;32.20;63.10
13616;DHT22;6879;51.368;6.782;2022-07-12T10:45:31;32.30;62.20
13616;DHT22;6879;51.368;6.782;2022-07-12T10:48:03;32.50;63.20
13616;DHT22;6879;51.368;6.782;2022-07-12T10:50:54;32.40;63.00
13616;DHT22;6879;51.368;6.782;2022-07-12T10:53:28;32.30;62.90
13616;DHT22;6879;51.368;6.782;2022-07-12T10:56:09;32.20;63.30
13616;DHT22;6879;51.368;6.782;2022-07-12T10:58:40;32.20;64.00
13616;DHT22;6879;51.368;6.782;2022-07-12T11:01:10;32.50;63.20
13616;DHT22;6879;51.368;6.782;2022-07-12T11:03:44;32.50;63.30
13616;DHT22;6879;51.368;6.782;2022-07-12T11:06:14;31.90;63.70
13616;DHT22;6879;51.368;6.782;2022-07-12T11:08:51;31.50;64.50
13616;DHT22;6879;51.368;6.782;2022-07-12T11:11:21;32.00;64.20
13616;DHT22;6879;51.368;6.782;2022-07-12T11:13:50;32.50;63.00
13616;DHT22;6879;51.368;6.782;2022-07-12T11:16:18;32.30;62.60
13616;DHT22;6879;51.368;6.782;2022-07-12T11:18:49;32.30;62.90
13616;DHT22;6879;51.368;6.782;2022-07-12T11:21:18;32.90;62.10
13616;DHT22;6879;51.368;6.782;2022-07-12T11:23:47;33.40;61.20
13616;DHT22;6879;51.368;6.782;2022-07-12T11:26:16;33.90;60.80
13616;DHT22;6879;51.368;6.782;2022-07-12T11:28:48;34.10;60.30
13616;DHT22;6879;51.368;6.782;2022-07-12T11:31:17;34.50;59.60
13616;DHT22;6879;51.368;6.782;2022-07-12T11:33:51;35.00;59.30
13616;DHT22;6879;51.368;6.782;2022-07-12T11:36:20;35.30;57.70
13616;DHT22;6879;51.368;6.782;2022-07-12T11:38:49;35.10;57.70
13616;DHT22;6879;51.368;6.782;2022-07-12T11:41:17;35.30;57.70
13616;DHT22;6879;51.368;6.782;2022-07-12T11:43:46;35.60;57.70
13616;DHT22;6879;51.368;6.782;2022-07-12T11:46:15;36.10;57.00
13616;DHT22;6879;51.368;6.782;2022-07-12T11:48:45;36.30;56.30
13616;DHT22;6879;51.368;6.782;2022-07-12T11:51:15;36.20;56.70
13616;DHT22;6879;51.368;6.782;2022-07-12T11:53:43;36.10;56.70
13616;DHT22;6879;51.368;6.782;2022-07-12T11:56:29;36.30;55.80
13616;DHT22;6879;51.368;6.782;2022-07-12T11:58:57;36.10;56.10
13616;DHT22;6879;51.368;6.782;2022-07-12T12:01:26;36.40;55.40
13616;DHT22;6879;51.368;6.782;2022-07-12T12:03:55;36.20;55.90
13616;DHT22;6879;51.368;6.782;2022-07-12T12:06:25;36.20;55.80
13616;DHT22;6879;51.368;6.782;2022-07-12T12:09:04;36.00;55.20
13616;DHT22;6879;51.368;6.782;2022-07-12T12:11:33;35.50;56.40
13616;DHT22;6879;51.368;6.782;2022-07-12T12:14:04;34.00;58.20
13616;DHT22;6879;51.368;6.782;2022-07-12T12:16:33;34.90;57.40
13616;DHT22;6879;51.368;6.782;2022-07-12T12:19:02;35.80;56.20
13616;DHT22;6879;51.368;6.782;2022-07-12T12:21:34;35.90;55.40
13616;DHT22;6879;51.368;6.782;2022-07-12T12:24:09;36.30;54.90
13616;DHT22;6879;51.368;6.782;2022-07-12T12:26:38;37.00;54.20
13616;DHT22;6879;51.368;6.782;2022-07-12T12:29:07;36.90;54.10
13616;DHT22;6879;51.368;6.782;2022-07-12T12:31:36;36.80;54.10
13616;DHT22;6879;51.368;6.782;2022-07-12T12:34:10;36.20;54.60
13616;DHT22;6879;51.368;6.782;2022-07-12T12:36:41;35.80;54.90
13616;DHT22;6879;51.368;6.782;2022-07-12T12:39:10;35.30;56.70
13616;DHT22;6879;51.368;6.782;2022-07-12T12:41:39;35.90;55.40
13616;DHT22;6879;51.368;6.782;2022-07-12T12:44:11;36.50;54.30
13616;DHT22;6879;51.368;6.782;2022-07-12T12:46:51;37.00;53.20
13616;DHT22;6879;51.368;6.782;2022-07-12T12:49:45;36.80;53.30
13616;DHT22;6879;51.368;6.782;2022-07-12T12:52:24;37.20;52.90
13616;DHT22;6879;51.368;6.782;2022-07-12T12:54:53;36.60;52.80
13616;DHT22;6879;51.368;6.782;2022-07-12T12:57:22;36.50;52.60
13616;DHT22;6879;51.368;6.782;2022-07-12T12:59:53;37.00;52.80
13616;DHT22;6879;51.368;6.782;2022-07-12T13:02:23;37.70;51.40
13616;DHT22;6879;51.368;6.782;2022-07-12T13:04:52;38.10;50.50
13616;DHT22;6879;51.368;6.782;2022-07-12T13:07:22;38.10;50.40
13616;DHT22;6879;51.368;6.782;2022-07-12T13:09:51;38.10;50.80
13616;DHT22;6879;51.368;6.782;2022-07-12T13:12:19;38.40;50.00
13616;DHT22;6879;51.368;6.782;2022-07-12T13:14:50;38.30;49.60
13616;DHT22;6879;51.368;6.782;2022-07-12T13:17:18;38.10;49.40
13616;DHT22;6879;51.368;6.782;2022-07-12T13:19:47;37.50;49.90
13616;DHT22;6879;51.368;6.782;2022-07-12T13:22:22;37.10;50.50
13616;DHT22;6879;51.368;6.782;2022-07-12T13:24:51;37.00;50.80
13616;DHT22;6879;51.368;6.782;2022-07-12T13:27:20;36.40;50.20
13616;DHT22;6879;51.368;6.782;2022-07-12T13:29:51;36.60;48.80
13616;DHT22;6879;51.368;6.782;2022-07-12T13:32:19;36.90;48.70
13616;DHT22;6879;51.368;6.782;2022-07-12T13:34:51;37.10;49.20
13616;DHT22;6879;51.368;6.782;2022-07-12T13:37:20;37.40;48.40
13616;DHT22;6879;51.368;6.782;2022-07-12T13:39:50;37.20;47.80
13616;DHT22;6879;51.368;6.782;2022-07-12T13:42:36;36.40;49.90
13616;DHT22;6879;51.368;6.782;2022-07-12T13:45:05;36.60;50.50
13616;DHT22;6879;51.368;6.782;2022-07-12T13:47:34;37.40;47.40
13616;DHT22;6879;51.368;6.782;2022-07-12T13:50:04;37.60;47.20
13616;DHT22;6879;51.368;6.782;2022-07-12T13:52:32;38.10;46.70
13616;DHT22;6879;51.368;6.782;2022-07-12T13:55:03;38.60;46.80
13616;DHT22;6879;51.368;6.782;2022-07-12T13:57:32;39.40;44.70
13616;DHT22;6879;51.368;6.782;2022-07-12T14:00:03;39.60;43.80
13616;DHT22;6879;51.368;6.782;2022-07-12T14:02:37;39.70;45.00
13616;DHT22;6879;51.368;6.782;2022-07-12T14:05:09;39.50;46.10
13616;DHT22;6879;51.368;6.782;2022-07-12T14:07:39;39.70;46.60
13616;DHT22;6879;51.368;6.782;2022-07-12T14:10:10;40.20;45.50
13616;DHT22;6879;51.368;6.782;2022-07-12T14:12:39;40.00;46.20
13616;DHT22;6879;51.368;6.782;2022-07-12T14:15:10;39.60;46.40
13616;DHT22;6879;51.368;6.782;2022-07-12T14:17:47;39.40;47.00
13616;DHT22;6879;51.368;6.782;2022-07-12T14:20:19;39.40;47.70
13616;DHT22;6879;51.368;6.782;2022-07-12T14:22:48;38.20;48.90
13616;DHT22;6879;51.368;6.782;2022-07-12T14:25:19;38.50;48.80
13616;DHT22;6879;51.368;6.782;2022-07-12T14:27:48;38.70;49.20
13616;DHT22;6879;51.368;6.782;2022-07-12T14:30:18;38.50;49.20
13616;DHT22;6879;51.368;6.782;2022-07-12T14:32:48;38.20;49.10
13616;DHT22;6879;51.368;6.782;2022-07-12T14:35:21;37.60;49.50
13616;DHT22;6879;51.368;6.782;2022-07-12T14:37:50;36.20;50.70
13616;DHT22;6879;51.368;6.782;2022-07-12T14:40:20;35.90;51.10
13616;DHT22;6879;51.368;6.782;2022-07-12T14:42:51;36.20;51.00
13616;DHT22;6879;51.368;6.782;2022-07-12T14:45:23;36.60;50.40
13616;DHT22;6879;51.368;6.782;2022-07-12T14:47:52;36.70;50.50
13616;DHT22;6879;51.368;6.782;2022-07-12T14:50:20;36.80;50.30
13616;DHT22;6879;51.368;6.782;2022-07-12T14:52:49;36.90;49.50
13616;DHT22;6879;51.368;6.782;2022-07-12T14:55:20;36.70;49.40
13616;DHT22;6879;51.368;6.782;2022-07-12T14:57:49;36.80;49.50
13616;DHT22;6879;51.368;6.782;2022-07-12T15:00:17;37.00;49.40
13616;DHT22;6879;51.368;6.782;2022-07-12T15:02:47;37.30;49.10
13616;DHT22;6879;51.368;6.782;2022-07-12T15:05:22;37.20;49.40
13616;DHT22;6879;51.368;6.782;2022-07-12T15:07:51;37.70;48.90
13616;DHT22;6879;51.368;6.782;2022-07-12T15:10:22;38.80;48.00
13616;DHT22;6879;51.368;6.782;2022-07-12T15:12:51;40.10;46.30
13616;DHT22;6879;51.368;6.782;2022-07-12T15:15:29;40.20;46.30
13616;DHT22;6879;51.368;6.782;2022-07-12T15:20:57;40.60;46.00
13616;DHT22;6879;51.368;6.782;2022-07-12T15:23:28;40.90;45.40
13616;DHT22;6879;51.368;6.782;2022-07-12T15:25:59;39.60;46.70
13616;DHT22;6879;51.368;6.782;2022-07-12T15:28:28;38.90;47.70
13616;DHT22;6879;51.368;6.782;2022-07-12T15:30:57;38.70;48.00
13616;DHT22;6879;51.368;6.782;2022-07-12T15:33:27;37.80;49.10
13616;DHT22;6879;51.368;6.782;2022-07-12T15:35:55;37.30;50.10
13616;DHT22;6879;51.368;6.782;2022-07-12T15:38:24;36.80;50.80
13616;DHT22;6879;51.368;6.782;2022-07-12T15:40:53;36.40;50.80
13616;DHT22;6879;51.368;6.782;2022-07-12T15:43:24;36.20;51.00
13616;DHT22;6879;51.368;6.782;2022-07-12T15:45:53;36.20;51.30
13616;DHT22;6879;51.368;6.782;2022-07-12T15:48:22;35.60;51.90
13616;DHT22;6879;51.368;6.782;2022-07-12T15:50:51;35.90;52.10
13616;DHT22;6879;51.368;6.782;2022-07-12T15:53:20;35.40;52.20
13616;DHT22;6879;51.368;6.782;2022-07-12T15:55:59;35.20;52.70
13616;DHT22;6879;51.368;6.782;2022-07-12T15:58:33;35.30;52.80
13616;DHT22;6879;51.368;6.782;2022-07-12T16:01:03;36.20;52.40
13616;DHT22;6879;51.368;6.782;2022-07-12T16:03:32;37.00;50.40
13616;DHT22;6879;51.368;6.782;2022-07-12T16:06:02;38.50;49.30
13616;DHT22;6879;51.368;6.782;2022-07-12T16:08:31;39.50;47.60
13616;DHT22;6879;51.368;6.782;2022-07-12T16:11:02;39.30;47.40
13616;DHT22;6879;51.368;6.782;2022-07-12T16:13:32;38.70;47.50
13616;DHT22;6879;51.368;6.782;2022-07-12T16:16:02;38.80;48.00